createdAt,value
2018-05-01T00:01:45.052Z,99.90
2018-05-01T00:04:12.516Z,99.90
2018-05-01T00:06:40.036Z,99.90
2018-05-01T00:09:07.503Z,99.90
2018-05-01T00:11:34.987Z,99.90
2018-05-01T00:14:02.449Z,99.90
2018-05-01T00:16:29.933Z,99.90
2018-05-01T00:18:58.172Z,99.90
2018-05-01T00:21:25.664Z,99.90
2018-05-01T00:23:53.912Z,99.90
2018-05-01T00:26:21.396Z,99.90
2018-05-01T00:28:48.859Z,99.90
2018-05-01T00:31:17.133Z,99.90
2018-05-01T00:33:44.588Z,99.90
2018-05-01T00:36:12.067Z,99.90
2018-05-01T00:38:39.543Z,99.90
2018-05-01T00:41:07.011Z,99.90
2018-05-01T00:43:34.487Z,99.90
2018-05-01T00:46:01.939Z,99.90
2018-05-01T00:48:29.419Z,99.90
2018-05-01T00:50:56.871Z,99.90
2018-05-01T00:53:24.354Z,99.90
2018-05-01T00:55:52.593Z,99.90
2018-05-01T00:58:20.068Z,99.90
2018-05-01T01:00:47.545Z,99.90
2018-05-01T01:03:15.800Z,99.90
2018-05-01T01:05:43.335Z,99.90
2018-05-01T01:08:10.740Z,99.90
2018-05-01T01:10:38.968Z,99.90
2018-05-01T01:13:06.452Z,99.90
2018-05-01T01:15:33.924Z,99.90
2018-05-01T01:18:01.404Z,99.90
2018-05-01T01:20:28.903Z,99.90
2018-05-01T01:22:56.364Z,99.90
2018-05-01T01:25:23.835Z,99.90
2018-05-01T01:27:51.299Z,99.90
2018-05-01T01:30:18.778Z,99.90
2018-05-01T01:32:52.043Z,99.90
2018-05-01T01:35:19.030Z,99.90
2018-05-01T01:37:46.775Z,99.90
2018-05-01T01:40:13.766Z,99.90
2018-05-01T01:42:40.738Z,99.90
2018-05-01T01:45:07.744Z,99.90
2018-05-01T01:47:34.716Z,99.90
2018-05-01T01:50:01.756Z,99.90
2018-05-01T01:52:28.732Z,99.90
2018-05-01T01:54:55.720Z,99.90
2018-05-01T01:57:23.451Z,99.90
2018-05-01T01:59:50.445Z,99.90
2018-05-01T02:02:17.419Z,99.90
2018-05-01T02:04:44.404Z,99.90
2018-05-01T02:07:11.368Z,99.90
2018-05-01T02:09:39.100Z,99.90
2018-05-01T02:12:06.108Z,99.90
2018-05-01T02:14:33.158Z,99.90
2018-05-01T02:17:00.160Z,99.90
2018-05-01T02:19:27.136Z,99.90
2018-05-01T02:21:54.119Z,99.90
2018-05-01T02:24:21.088Z,99.90
2018-05-01T02:26:49.580Z,99.90
2018-05-01T02:29:16.561Z,99.90
2018-05-01T02:31:43.556Z,99.90
2018-05-01T02:34:10.533Z,99.90
2018-05-01T02:36:38.284Z,99.90
2018-05-01T02:39:05.256Z,99.90
2018-05-01T02:41:33.001Z,99.90
2018-05-01T02:44:00.749Z,99.90
2018-05-01T02:46:27.747Z,99.90
2018-05-01T02:48:54.711Z,99.90
2018-05-01T02:51:21.707Z,99.90
2018-05-01T02:53:49.444Z,99.90
2018-05-01T02:56:16.412Z,99.90
2018-05-01T02:58:44.171Z,99.90
2018-05-01T03:01:11.146Z,99.90
2018-05-01T03:03:38.907Z,99.90
2018-05-01T03:06:06.645Z,99.90
2018-05-01T03:08:33.635Z,99.90
2018-05-01T03:11:00.608Z,99.90
2018-05-01T03:13:27.596Z,99.90
2018-05-01T03:15:56.336Z,99.90
2018-05-01T03:18:23.328Z,99.90
2018-05-01T03:20:51.072Z,99.90
2018-05-01T03:23:18.065Z,99.90
2018-05-01T03:25:45.041Z,99.90
2018-05-01T03:28:12.023Z,99.90
2018-05-01T03:30:39.006Z,99.90
2018-05-01T03:33:06.024Z,99.90
2018-05-01T03:35:32.997Z,99.90
2018-05-01T03:37:59.987Z,99.90
2018-05-01T03:40:26.983Z,99.90
2018-05-01T03:42:54.720Z,99.90
2018-05-01T03:45:21.714Z,99.90
2018-05-01T03:47:48.688Z,99.90
2018-05-01T03:50:15.668Z,99.90
2018-05-01T03:52:42.640Z,99.90
2018-05-01T03:55:09.636Z,99.90
2018-05-01T03:57:36.646Z,99.90
2018-05-01T04:00:03.628Z,99.90
2018-05-01T04:02:30.596Z,99.90
2018-05-01T04:04:57.583Z,99.90
2018-05-01T04:07:24.559Z,99.90
2018-05-01T04:09:51.539Z,99.90
2018-05-01T04:12:18.508Z,99.90
2018-05-01T04:14:45.499Z,99.90
2018-05-01T04:17:12.519Z,99.90
2018-05-01T04:19:39.508Z,99.90
2018-05-01T04:22:06.513Z,99.90
2018-05-01T04:24:33.480Z,99.90
2018-05-01T04:27:00.468Z,99.90
2018-05-01T04:29:28.204Z,99.90
2018-05-01T04:31:55.216Z,99.90
2018-05-01T04:34:22.188Z,99.90
2018-05-01T04:36:49.179Z,99.90
2018-05-01T04:39:16.913Z,99.90
2018-05-01T04:41:43.900Z,99.90
2018-05-01T04:44:11.639Z,99.90
2018-05-01T04:46:40.150Z,99.90
2018-05-01T04:49:07.890Z,99.90
2018-05-01T04:51:34.880Z,99.90
2018-05-01T04:54:01.853Z,99.90
2018-05-01T04:56:28.856Z,99.90
2018-05-01T04:58:55.837Z,99.90
2018-05-01T05:01:22.865Z,99.90
2018-05-01T05:03:49.832Z,99.90
2018-05-01T05:06:16.820Z,99.90
2018-05-01T05:08:44.564Z,99.90
2018-05-01T05:11:11.532Z,99.90
2018-05-01T05:13:39.288Z,99.90
2018-05-01T05:16:06.268Z,99.90
2018-05-01T05:18:33.251Z,99.90
2018-05-01T05:21:00.274Z,99.90
2018-05-01T05:23:27.269Z,99.90
2018-05-01T05:25:54.243Z,99.90
2018-05-01T05:28:21.993Z,99.90
2018-05-01T05:30:49.728Z,99.90
2018-05-01T05:33:16.707Z,99.90
2018-05-01T05:35:44.436Z,99.90
2018-05-01T05:38:11.422Z,99.90
2018-05-01T05:40:39.152Z,99.90
2018-05-01T05:43:06.145Z,99.90
2018-05-01T05:45:33.879Z,99.90
2018-05-01T05:48:00.871Z,99.90
2018-05-01T05:50:27.920Z,99.90
2018-05-01T05:52:54.908Z,99.90
2018-05-01T05:55:21.877Z,99.90
2018-05-01T05:57:49.611Z,99.90
2018-05-01T06:00:16.592Z,99.90
2018-05-01T06:02:44.323Z,99.90
2018-05-01T06:05:11.309Z,99.90
2018-05-01T06:07:39.054Z,99.90
2018-05-01T06:10:06.045Z,99.90
2018-05-01T06:12:33.016Z,99.90
2018-05-01T06:15:00.000Z,99.90
2018-05-01T06:17:27.734Z,99.90
2018-05-01T06:19:54.718Z,99.90
2018-05-01T06:22:22.467Z,99.90
2018-05-01T06:24:49.462Z,99.90
2018-05-01T06:27:16.435Z,99.90
2018-05-01T06:29:43.422Z,99.90
2018-05-01T06:32:11.155Z,99.90
2018-05-01T06:34:38.222Z,99.90
2018-05-01T06:37:05.209Z,99.90
2018-05-01T06:39:32.187Z,99.90
2018-05-01T06:41:59.175Z,99.90
2018-05-01T06:44:26.912Z,99.60
2018-05-01T06:46:53.900Z,99.60
2018-05-01T06:49:20.873Z,99.90
2018-05-01T06:51:47.858Z,99.50
2018-05-01T06:54:14.828Z,99.30
2018-05-01T06:56:42.619Z,98.90
2018-05-01T06:59:09.685Z,98.90
2018-05-01T07:01:36.676Z,98.70
2018-05-01T07:04:04.516Z,98.60
2018-05-01T07:06:32.213Z,98.90
2018-05-01T07:08:59.945Z,98.50
2018-05-01T07:11:26.934Z,98.50
2018-05-01T07:13:54.691Z,98.30
2018-05-01T07:16:22.435Z,98.20
2018-05-01T07:18:49.412Z,98.20
2018-05-01T07:21:17.246Z,98.00
2018-05-01T07:23:44.152Z,98.00
2018-05-01T07:26:11.129Z,98.00
2018-05-01T07:28:38.138Z,97.80
2018-05-01T07:31:05.104Z,97.50
2018-05-01T07:33:32.083Z,97.50
2018-05-01T07:35:59.057Z,96.70
2018-05-01T07:38:26.091Z,96.20
2018-05-01T07:40:53.847Z,95.80
2018-05-01T07:43:20.887Z,95.80
2018-05-01T07:45:48.703Z,95.60
2018-05-01T07:48:15.696Z,95.60
2018-05-01T07:50:42.666Z,95.60
2018-05-01T07:53:10.428Z,95.10
2018-05-01T07:55:38.169Z,95.00
2018-05-01T07:58:05.163Z,95.00
2018-05-01T08:00:32.140Z,94.50
2018-05-01T08:02:59.128Z,94.70
2018-05-01T08:05:26.892Z,95.00
2018-05-01T08:07:54.663Z,95.00
2018-05-01T08:10:22.412Z,94.30
2018-05-01T08:12:50.155Z,94.90
2018-05-01T08:15:17.269Z,94.80
2018-05-01T08:17:44.254Z,94.20
2018-05-01T08:20:11.249Z,93.80
2018-05-01T08:22:38.993Z,93.30
2018-05-01T08:25:06.754Z,93.20
2018-05-01T08:27:34.503Z,93.00
2018-05-01T08:30:01.519Z,93.00
2018-05-01T08:32:28.495Z,93.00
2018-05-01T08:34:55.506Z,92.90
2018-05-01T08:37:22.492Z,92.90
2018-05-01T08:39:49.476Z,92.20
2018-05-01T08:42:16.460Z,92.20
2018-05-01T08:44:43.457Z,92.20
2018-05-01T08:47:11.207Z,91.10
2018-05-01T08:49:38.233Z,91.10
2018-05-01T08:52:05.206Z,91.10
2018-05-01T08:54:32.213Z,90.40
2018-05-01T08:56:59.209Z,89.20
2018-05-01T08:59:26.998Z,89.60
2018-05-01T09:02:14.023Z,89.60
2018-05-01T09:04:41.043Z,89.70
2018-05-01T09:07:08.050Z,88.90
2018-05-01T09:09:35.108Z,89.40
2018-05-01T09:12:02.241Z,89.20
2018-05-01T09:14:29.220Z,89.30
2018-05-01T09:16:57.041Z,89.10
2018-05-01T09:19:24.000Z,89.20
2018-05-01T09:21:50.995Z,88.10
2018-05-01T09:24:17.971Z,89.30
2018-05-01T09:26:45.033Z,88.60
2018-05-01T09:29:12.032Z,88.10
2018-05-01T09:31:39.796Z,87.30
2018-05-01T09:34:07.563Z,87.60
2018-05-01T09:36:34.559Z,87.60
2018-05-01T09:39:01.544Z,88.20
2018-05-01T09:41:29.295Z,88.30
2018-05-01T09:43:56.336Z,87.70
2018-05-01T09:46:23.320Z,87.20
2018-05-01T09:48:50.328Z,86.50
2018-05-01T09:51:17.307Z,85.50
2018-05-01T09:53:45.562Z,85.80
2018-05-01T09:56:13.066Z,85.80
2018-05-01T09:58:40.548Z,85.60
2018-05-01T10:01:08.013Z,85.20
2018-05-01T10:03:35.506Z,85.90
2018-05-01T10:06:03.749Z,83.20
2018-05-01T10:08:31.252Z,83.20
2018-05-01T10:10:58.736Z,82.10
2018-05-01T10:13:26.227Z,81.80
2018-05-01T10:15:53.699Z,81.40
2018-05-01T10:18:21.187Z,82.20
2018-05-01T10:20:49.436Z,83.00
2018-05-01T10:23:16.936Z,82.80
2018-05-01T10:25:44.416Z,81.60
2018-05-01T10:28:11.904Z,81.30
2018-05-01T10:30:39.396Z,83.10
2018-05-01T10:33:07.633Z,83.50
2018-05-01T10:35:35.147Z,83.40
2018-05-01T10:38:02.627Z,81.50
2018-05-01T10:40:30.116Z,80.50
2018-05-01T10:42:57.589Z,80.80
2018-05-01T10:45:25.867Z,81.20
2018-05-01T10:47:54.108Z,80.90
2018-05-01T10:50:21.608Z,80.70
2018-05-01T10:52:49.856Z,81.70
2018-05-01T10:55:17.480Z,81.70
2018-05-01T10:57:44.987Z,81.50
2018-05-01T11:00:13.252Z,80.60
2018-05-01T11:02:40.731Z,80.60
2018-05-01T11:05:08.973Z,82.00
2018-05-01T11:07:36.441Z,82.10
2018-05-01T11:10:03.932Z,82.50
2018-05-01T11:12:32.160Z,81.40
2018-05-01T11:17:22.331Z,82.10
2018-05-01T11:19:49.808Z,82.20
2018-05-01T11:22:17.288Z,81.50
2018-05-01T11:24:44.832Z,80.70
2018-05-01T11:27:12.292Z,81.10
2018-05-01T11:29:39.761Z,81.60
2018-05-01T11:32:07.247Z,81.80
2018-05-01T11:34:34.736Z,79.90
2018-05-01T11:37:02.220Z,80.60
2018-05-01T11:39:29.679Z,81.30
2018-05-01T11:41:57.160Z,79.30
2018-05-01T11:44:24.641Z,79.50
2018-05-01T11:46:52.132Z,80.20
2018-05-01T11:49:19.610Z,81.20
2018-05-01T11:51:47.092Z,80.00
2018-05-01T11:54:14.568Z,78.40
2018-05-01T11:56:42.047Z,76.50
2018-05-01T11:59:10.303Z,76.40
2018-05-01T12:01:37.775Z,76.40
2018-05-01T12:04:06.039Z,77.20
2018-05-01T12:06:34.279Z,75.20
2018-05-01T12:09:01.809Z,75.20
2018-05-01T12:11:29.292Z,75.50
2018-05-01T12:13:56.804Z,75.80
2018-05-01T12:16:25.036Z,72.70
2018-05-01T12:18:52.540Z,72.60
2018-05-01T12:21:20.804Z,71.40
2018-05-01T12:23:49.079Z,71.60
2018-05-01T12:26:16.543Z,71.10
2018-05-01T12:28:44.795Z,71.20
2018-05-01T12:31:13.782Z,71.50
2018-05-01T12:33:41.286Z,71.50
2018-05-01T12:36:09.591Z,70.80
2018-05-01T12:38:37.146Z,70.80
2018-05-01T12:41:04.635Z,70.10
2018-05-01T12:43:32.134Z,71.20
2018-05-01T12:46:00.408Z,72.70
2018-05-01T12:48:28.755Z,71.80
2018-05-01T12:50:56.227Z,71.80
2018-05-01T12:53:23.694Z,70.10
2018-05-01T12:55:51.176Z,70.00
2018-05-01T12:58:18.649Z,70.20
2018-05-01T13:00:46.128Z,69.10
2018-05-01T13:03:13.639Z,70.10
2018-05-01T13:05:41.884Z,69.50
2018-05-01T13:08:09.344Z,69.40
2018-05-01T13:10:36.815Z,69.40
2018-05-01T13:13:04.279Z,69.30
2018-05-01T13:15:32.517Z,71.00
2018-05-01T13:17:59.995Z,70.40
2018-05-01T13:20:28.228Z,69.50
2018-05-01T13:22:55.716Z,69.50
2018-05-01T13:25:23.179Z,69.40
2018-05-01T13:27:50.652Z,70.30
2018-05-01T13:30:18.117Z,70.10
2018-05-01T13:50:21.840Z,70.30
2018-05-01T15:03:21.223Z,64.60
2018-05-01T22:59:58.528Z,97.60
